Airfield :
LOGIN :

Register | Disclaimer

   EN    FR    IT 

 










Legend :    VFR   Marginal VFR   IFR   Intensive IFR   Very Intensive IFR
Visi :
Ceiling :
>= 8 km
>= 3000ft
5 to 8 km
1000 to 3000 ft
1500m to 5 km
500 to 1000 ft
800 to 1500m
200 to 500 ft
< 800m
< 200 ft
Symbols :   Thunderstorms  Fog  Heavy snow  Heavy precipitations  Wind > 20 kt
SIGMETs :     Misc.  Thunderstorms  Icing  Turbulence  Mountain Waves  Volcanic Ashes







- Airport Elevation : 55 ft
- Download approach charts


EGNO - Warton Preston

CURRENT METAR :
  • 221250Z 29011KT 240V330 9999 FEW040 16/07 Q1032

EXPIRED METARs :
  • 221220Z 28011KT 250V310 9999 FEW040 17/07 Q1032
  • 221150Z 29010KT 250V340 9999 FEW032 17/08 Q1032
  • 221120Z VRB04KT 9999 FEW032 18/08 Q1031
  • 221050Z 28006KT 180V330 9999 FEW032 17/08 Q1032
  • 221020Z 31006KT 210V360 9999 FEW030 17/08 Q1032
  • 220950Z 24006KT 190V310 9999 FEW030 16/09 Q1032

TAF TAF EGNO
Valid from the 22 at 12:00 until the 22 at 18:00 UTC


221055Z 2212/2218 30008KT CAVOK
ATIS : +44 1772 856 060
No reported NOTAMs for that airfield.



MET'MAP, your aeronautical weather chart ! - Copyright ORBIFLY December 2007 - Disclaimer

ORBIFLY MET'MAP TEAM :

Programming & Development : Alexandra Zaïnal
Concept & Development : Baudouin d'Aumeries
Co-Development & Prog : Marc-Olivier Méhu
Technical & hardware support : Manuel Goepfert

Contact : metmap@orbifly.com




SOURCES & CREDITS :

   NOAA